Flight Track Log - Related Links

Times and Time Zones

All times are in EDT time to prevent confusion due to time zone crossing. See the RPA3253 flight status page for this flight to view local times or setup timezone preferences in your user account.

Time Position Orientation Groundspeed Altitude Reporting Facility
EDT Latitude Longitude Course Direction KTS MPH feet Rate Location/Type
Tue 10:38:30 PM 35.1892 -80.9508 192° South 162 186 1,600  Level Atlanta Center
Tue 10:39:37 PM 35.1331 -80.9658 192° South 224 258 3,200 2,031 Climbing Atlanta Center
Tue 10:40:37 PM 35.1186 -81.0553 259° West 283 326 5,900 2,532 Climbing Atlanta Center
Tue 10:41:26 PM 35.1100 -81.1292 262° West 282 325 7,800 1,255 Climbing Atlanta Center
Tue 10:42:27 PM 35.0956 -81.2211 259° West 282 325 8,200 1,419 Climbing Atlanta Center
Tue 10:43:54 PM 35.0633 -81.3692 255° West 318 366 11,300 2,204 Climbing Atlanta Center
Tue 10:44:54 PM 35.0303 -81.4794 250° West 342 394 13,600 2,200 Climbing Atlanta Center
Tue 10:45:54 PM 34.9969 -81.5919 250° West 353 406 15,700 2,000 Climbing Atlanta Center
Tue 10:46:54 PM 34.9656 -81.6917 249° West 358 412 17,600 1,800 Climbing Atlanta Center
Tue 10:47:54 PM 34.9303 -81.8067 250° West 358 412 19,300 1,600 Climbing Atlanta Center
Tue 10:48:54 PM 34.8714 -81.9122 236° Southwest 368 423 20,800 1,400 Climbing Atlanta Center
Tue 10:49:54 PM 34.8067 -82.0275 236° Southwest 373 429 22,100 1,250 Climbing Atlanta Center
Tue 10:50:54 PM 34.7439 -82.1403 236° Southwest 390 449 23,300 1,250 Climbing Atlanta Center
Tue 10:51:54 PM 34.6808 -82.2503 235° Southwest 401 461 24,600 850 Climbing Atlanta Center
Tue 10:52:54 PM 34.6197 -82.3578 235° Southwest 415 478 25,000 200 Climbing Atlanta Center
Tue 10:53:54 PM 34.5564 -82.4675 235° Southwest 415 478 25,000  Level Atlanta Center
Tue 10:54:54 PM 34.4889 -82.5847 235° Southwest 415 478 25,000 350 Level Atlanta Center
Tue 10:55:54 PM 34.4194 -82.6992 234° Southwest 427 491 25,700 850 Climbing Atlanta Center
Tue 10:56:54 PM 34.3517 -82.8133 234° Southwest 432 497 26,700 950 Climbing Atlanta Center
Tue 10:57:54 PM 34.2839 -82.9275 234° Southwest 432 497 27,600 850 Climbing Atlanta Center
Tue 10:58:54 PM 34.2139 -83.0492 235° Southwest 434 499 28,400 800 Climbing Atlanta Center
Tue 10:59:54 PM 34.1378 -83.1831 236° Southwest 434 499 29,200 900 Climbing Atlanta Center
Tue 11:00:54 PM 34.0697 -83.2989 235° Southwest 434 499 30,200 900 Climbing Atlanta Center
Tue 11:01:54 PM 34.0014 -83.4200 236° Southwest 434 499 31,000 400 Climbing Atlanta Center
Tue 11:02:54 PM 33.9311 -83.5381 234° Southwest 434 499 31,000 100 Level Atlanta Center
Tue 11:03:54 PM 33.8606 -83.6561 234° Southwest 434 499 31,200 550 Climbing Atlanta Center
Tue 11:04:54 PM 33.7878 -83.7764 234° Southwest 439 505 32,100 850 Climbing Atlanta Center
Tue 11:05:54 PM 33.7189 -83.8939 235° Southwest 439 505 32,900 750 Climbing Atlanta Center
Tue 11:06:54 PM 33.6544 -83.9989 234° Southwest 439 505 33,600 550 Climbing Atlanta Center
Tue 11:07:54 PM 33.5856 -84.1186 235° Southwest 439 505 34,000 200 Climbing Atlanta Center
Tue 11:08:54 PM 33.5164 -84.2306 233° Southwest 434 499 34,000  Level Atlanta Center
Tue 11:09:54 PM 33.4453 -84.3500 235° Southwest 428 493 34,000  Level Atlanta Center
Tue 11:10:54 PM 33.3678 -84.4817 235° Southwest 438 504 34,000 200 Level Atlanta Center
Tue 11:11:54 PM 33.2961 -84.6006 234° Southwest 445 512 34,400 500 Climbing Atlanta Center
Tue 11:12:54 PM 33.2225 -84.7217 234° Southwest 450 518 35,000 550 Climbing Atlanta Center
Tue 11:13:54 PM 33.1486 -84.8428 234° Southwest 450 518 35,500 500 Climbing Atlanta Center
Tue 11:14:54 PM 33.0769 -84.9586 234° Southwest 450 518 36,000 250 Climbing Atlanta Center
Tue 11:15:54 PM 33.0008 -85.0817 234° Southwest 450 518 36,000 100 Level Atlanta Center
Tue 11:16:54 PM 32.9372 -85.1822 233° Southwest 445 512 36,200 300 Climbing Atlanta Center
Tue 11:17:54 PM 32.8611 -85.3025 233° Southwest 445 512 36,600 400 Climbing Atlanta Center
Tue 11:18:54 PM 32.7889 -85.4225 234° Southwest 450 518 37,000 200 Climbing Atlanta Center
Tue 11:19:54 PM 32.7142 -85.5422 233° Southwest 455 524 37,000  Level Atlanta Center
Tue 11:20:54 PM 32.6378 -85.6619 233° Southwest 455 524 37,000  Level Atlanta Center
Tue 11:21:54 PM 32.5631 -85.7836 234° Southwest 460 529 37,000  Level Atlanta Center
Tue 11:22:54 PM 32.4733 -85.9222 233° Southwest 479 551 37,000 -500 Level Atlanta Center
Tue 11:23:54 PM 32.3942 -86.0436 232° Southwest 479 551 36,000 -500 Descending Atlanta Center
Tue 11:24:54 PM 32.3189 -86.1672 234° Southwest 479 551 36,000  Level Atlanta Center
Tue 11:25:54 PM 32.2436 -86.2908 234° Southwest 474 545 36,000  Level Atlanta Center
Tue 11:26:54 PM 32.1747 -86.4019 234° Southwest 475 547 36,000  Level Atlanta Center
Tue 11:27:54 PM 32.0911 -86.5172 229° Southwest 468 539 36,000  Level Atlanta Center
Tue 11:28:54 PM 32.0053 -86.6350 229° Southwest 474 545 36,000  Level Atlanta Center
Tue 11:29:54 PM 31.9044 -86.7617 227° Southwest 479 551 36,000  Level Atlanta Center
Tue 11:30:54 PM 31.8203 -86.8814 230° Southwest 479 551 36,000  Level Atlanta Center
Tue 11:31:54 PM 31.7364 -86.9958 229° Southwest 479 551 36,000  Level Atlanta Center
Tue 11:32:54 PM 31.6628 -87.1033 231° Southwest 479 551 36,000  Level Atlanta Center
Tue 11:34:22 PM 31.5383 -87.2639 228° Southwest 472 543 36,000  Level Houston Center
Tue 11:35:23 PM 31.4358 -87.4044 230° Southwest 473 544 36,000  Level Houston Center
Tue 11:36:23 PM 31.3497 -87.5206 229° Southwest 472 543 36,000  Level Houston Center
Tue 11:37:24 PM 31.2650 -87.6369 230° Southwest 470 541 36,000  Level Houston Center
Tue 11:38:25 PM 31.1772 -87.7539 229° Southwest 477 549 36,000  Level Houston Center
Tue 11:39:26 PM 31.0906 -87.8703 229° Southwest 477 549 36,000  Level Houston Center
Tue 11:40:27 PM 31.0058 -87.9861 230° Southwest 474 545 36,000  Level Houston Center
Tue 11:41:27 PM 30.9161 -88.1011 228° Southwest 480 552 36,000  Level Houston Center
Tue 11:42:28 PM 30.8278 -88.2181 229° Southwest 481 554 36,000 -590 Level Houston Center
Tue 11:43:29 PM 30.7408 -88.3347 229° Southwest 477 549 34,800 -1,785 Descending Houston Center
Tue 11:44:29 PM 30.6725 -88.4750 241° Southwest 466 536 32,400 -2,380 Descending Houston Center
Tue 11:45:30 PM 30.6117 -88.6114 243° Southwest 471 542 30,000 -2,331 Descending Houston Center
Tue 11:46:30 PM 30.5519 -88.7464 243° Southwest 470 541 27,700 -2,281 Descending Houston Center
Tue 11:47:31 PM 30.4939 -88.8786 243° Southwest 461 531 25,400 -2,164 Descending Houston Center
Tue 11:48:32 PM 30.4414 -88.9939 242° Southwest 444 511 23,300 -2,083 Descending Houston Center
Tue 11:49:32 PM 30.3900 -89.1181 244° Southwest 430 495 21,200 -2,083 Descending Houston Center
Tue 11:50:33 PM 30.3458 -89.2406 247° West 415 478 19,100 -1,884 Descending Houston Center
Tue 11:51:33 PM 30.3028 -89.3578 247° West 398 458 17,400 -1,922 Descending Houston Center
Tue 11:52:16 PM 30.2672 -89.4572 248° West 385 443 15,800 -2,093 Descending Houston Center
Tue 11:52:59 PM 30.2367 -89.5358 246° West 385 443 14,400 -1,769 Descending Houston Center
Tue 11:53:34 PM 30.2178 -89.5881 247° West 387 445 13,500 -1,750 Descending Houston Center
Tue 11:54:35 PM 30.1944 -89.7058 257° West 372 428 11,600 -1,721 Descending Houston Center
Tue 11:55:36 PM 30.1728 -89.8231 258° West 368 423 10,000 -1,289 Descending Houston Center
Tue 11:56:36 PM 30.1544 -89.9242 258° West 322 371 9,000 -1,736 Descending Houston Center
Tue 11:57:37 PM 30.1375 -90.0175 258° West 301 346 6,500 -2,479 Descending Houston Center
Tue 11:58:37 PM 30.1211 -90.1064 258° West 292 336 4,000 -2,132 Descending Houston Center
Tue 11:59:38 PM 30.1067 -90.1886 259° West 278 320 2,200 -1,190 Descending Houston Center
Wed 12:00:38 AM 30.0694 -90.2242 220° Southwest 214 246 1,600 -793 Descending Houston Center
Wed 12:01:39 AM 30.0325 -90.2375 197° South 167 192 600 -590 Descending Houston Center
Wed 12:02:40 AM 29.9908 -90.2506 195° South 155 178 400 -197 Descending Houston Center

Login

Don't have an account? Register now (free) for customized features, flight alerts, and more!